Terminal Aerodrome Forecast
Issued by NWS

Home | Current Version | Previous Version | Text Only | Print | Product List | Glossary On
Versions: 1 2 3 4 5 6 7 8 9 10 11 12 13
000
FTPA31 PHFO 202320
TAFHOG
TAF
PHOG 202320Z 2100/2124 06019G28KT P6SM FEW035 SCT060
     FM210500 06011G18KT P6SM FEW035 SCT060
     FM211900 06017G26KT P6SM FEW035 SCT060
      AMD LTD TO VIS AND WIND 2109/2116=

USA.gov is the U.S. government's official web portal to all federal, state and local government web resources and services.